PWSweather.com
Personal Weather Stations
Station Observations
KNVELKO7
Elko, NV 89801

Elko, NV 89801

Lat: 40.963233, Lon: -115.592836

Elevation: 5230

Station Type: WS-2812

High Low Average
Temperature 45.7°F7.6°F 4.7°F-15.2°F 20.5°F-6.4°F
Dew Point 32.2°F0.1°F 0.1°F-17.7°F 12.9°F-10.6°F
Winds 7.2 mph E11.6 mph E Calm Calm 2.6 mph 4.2 mph
Wind Gusts 8.1 mph13.0 mph -- 3.6 mph5.8 mph
Humidity 84% 54% 73%
Pressure 30.38 in1028.80 in 30.25 in1024.40 in -
Precipitation 0.00 in0.00 in - -
Hour Temp Dew Point Humidity Winds Wind Gusts Pressure Precip Precip Rate Daily Precip Total
12:00 AM 12.4°F-10.9°C 6.9°F-13.9°C 78% 1.1 mph ENE1.8 kmh ENE 2.0 mph3.2 kmh 30.33 in1027.1 mb 0.00 in0.0 mm 0.00 in0.0 mm 0.00 in0.0 mm
12:05 AM 12.1°F-11.1°C 6.5°F-14.2°C 78% 2.2 mph E3.5 kmh E 3.1 mph5.0 kmh 30.33 in1027.1 mb 0.00 in0.0 mm 0.00 in0.0 mm 0.00 in0.0 mm
12:10 AM 11.9°F-11.2°C 6.6°F-14.1°C 79% 4.3 mph E6.9 kmh E 4.7 mph7.6 kmh 30.34 in1027.4 mb 0.00 in0.0 mm 0.00 in0.0 mm 0.00 in0.0 mm
12:15 AM 11.7°F-11.3°C 6.4°F-14.2°C 79% 4.0 mph E6.4 kmh E 4.7 mph7.6 kmh 30.34 in1027.4 mb 0.00 in0.0 mm 0.00 in0.0 mm 0.00 in0.0 mm
12:20 AM 11.7°F-11.3°C 6.4°F-14.2°C 79% 4.2 mph E6.8 kmh E 4.9 mph7.9 kmh 30.34 in1027.4 mb 0.00 in0.0 mm 0.00 in0.0 mm 0.00 in0.0 mm
12:25 AM 11.5°F-11.4°C 6.2°F-14.3°C 79% 5.1 mph ENE8.2 kmh ENE 5.4 mph8.7 kmh 30.34 in1027.4 mb 0.00 in0.0 mm 0.00 in0.0 mm 0.00 in0.0 mm
12:30 AM 11.7°F-11.3°C 6.4°F-14.2°C 79% 5.4 mph ENE8.7 kmh ENE 5.4 mph8.7 kmh 30.34 in1027.4 mb 0.00 in0.0 mm 0.00 in0.0 mm 0.00 in0.0 mm
12:35 AM 11.3°F-11.5°C 6.0°F-14.4°C 79% 3.3 mph 5.3 kmh 5.4 mph8.7 kmh 30.34 in1027.4 mb 0.00 in0.0 mm 0.00 in0.0 mm 0.00 in0.0 mm
12:40 AM 10.6°F-11.9°C 5.1°F-14.9°C 78% 5.3 mph N8.5 kmh N 5.4 mph8.7 kmh 30.34 in1027.4 mb 0.00 in0.0 mm 0.00 in0.0 mm 0.00 in0.0 mm
12:45 AM 10.3°F-12.1°C 4.7°F-15.2°C 78% 3.2 mph NE5.1 kmh NE 5.4 mph8.7 kmh 30.33 in1027.1 mb 0.00 in0.0 mm 0.00 in0.0 mm 0.00 in0.0 mm
12:50 AM 10.3°F-12.1°C 4.7°F-15.2°C 78% 3.4 mph ENE5.5 kmh ENE 4.7 mph7.6 kmh 30.33 in1027.1 mb 0.00 in0.0 mm 0.00 in0.0 mm 0.00 in0.0 mm
12:55 AM 11.0°F-11.7°C 5.9°F-14.5°C 80% 3.6 mph E5.8 kmh E 5.1 mph8.2 kmh 30.33 in1027.1 mb 0.00 in0.0 mm 0.00 in0.0 mm 0.00 in0.0 mm
01:01 AM 11.3°F-11.5°C 6.3°F-14.3°C 80% 3.6 mph E5.8 kmh E 5.1 mph8.2 kmh 30.33 in1027.1 mb 0.00 in0.0 mm 0.00 in0.0 mm 0.00 in0.0 mm
01:06 AM 11.9°F-11.2°C 7.1°F-13.8°C 81% 1.8 mph E2.9 kmh E 4.0 mph6.4 kmh 30.34 in1027.4 mb 0.00 in0.0 mm 0.00 in0.0 mm 0.00 in0.0 mm
01:11 AM 11.9°F-11.2°C 7.1°F-13.8°C 81% 1.8 mph E2.9 kmh E 3.4 mph5.5 kmh 30.33 in1027.1 mb 0.00 in0.0 mm 0.00 in0.0 mm 0.00 in0.0 mm
01:16 AM 11.9°F-11.2°C 7.1°F-13.8°C 81% 1.8 mph E2.9 kmh E 1.8 mph2.9 kmh 30.33 in1027.1 mb 0.00 in0.0 mm 0.00 in0.0 mm 0.00 in0.0 mm
01:20 AM 11.2°F-11.6°C 5.9°F-14.5°C 79% 5.4 mph NNE8.7 kmh NNE 5.8 mph9.3 kmh 30.33 in1027.1 mb 0.00 in0.0 mm 0.00 in0.0 mm 0.00 in0.0 mm
01:25 AM 10.4°F-12.0°C 5.4°F-14.8°C 80% 6.2 mph NNE10.0 kmh NNE 6.3 mph10.1 kmh 30.34 in1027.4 mb 0.00 in0.0 mm 0.00 in0.0 mm 0.00 in0.0 mm
01:30 AM 10.4°F-12.0°C 5.1°F-14.9°C 79% 5.7 mph NE9.2 kmh NE 6.3 mph10.1 kmh 30.34 in1027.4 mb 0.00 in0.0 mm 0.00 in0.0 mm 0.00 in0.0 mm
01:35 AM 10.4°F-12.0°C 5.7°F-14.6°C 81% 5.9 mph NE9.5 kmh NE 6.3 mph10.1 kmh 30.34 in1027.4 mb 0.00 in0.0 mm 0.00 in0.0 mm 0.00 in0.0 mm
01:40 AM 10.3°F-12.1°C 5.2°F-14.9°C 80% 6.8 mph NE10.9 kmh NE 7.2 mph11.6 kmh 30.34 in1027.4 mb 0.00 in0.0 mm 0.00 in0.0 mm 0.00 in0.0 mm
01:45 AM 10.4°F-12.0°C 5.7°F-14.6°C 81% 4.6 mph 7.4 kmh 7.2 mph11.6 kmh 30.34 in1027.4 mb 0.00 in0.0 mm 0.00 in0.0 mm 0.00 in0.0 mm
01:50 AM 10.3°F-12.1°C 5.2°F-14.9°C 80% 2.0 mph NNW3.2 kmh NNW 6.9 mph11.1 kmh 30.34 in1027.4 mb 0.00 in0.0 mm 0.00 in0.0 mm 0.00 in0.0 mm
01:55 AM 10.3°F-12.1°C 5.2°F-14.9°C 80% 1.2 mph E1.9 kmh E 4.7 mph7.6 kmh 30.34 in1027.4 mb 0.00 in0.0 mm 0.00 in0.0 mm 0.00 in0.0 mm
02:01 AM 10.1°F-12.2°C 5.0°F-15.0°C 80% 1.7 mph SSW2.7 kmh SSW 2.9 mph4.7 kmh 30.34 in1027.4 mb 0.00 in0.0 mm 0.00 in0.0 mm 0.00 in0.0 mm
02:06 AM 9.9°F-12.3°C 5.0°F-15.0°C 80% 4.1 mph ENE6.6 kmh ENE 4.5 mph7.2 kmh 30.34 in1027.4 mb 0.00 in0.0 mm 0.00 in0.0 mm 0.00 in0.0 mm
02:11 AM 9.9°F-12.3°C 5.0°F-15.0°C 80% 3.3 mph NE5.3 kmh NE 4.5 mph7.2 kmh 30.34 in1027.4 mb 0.00 in0.0 mm 0.00 in0.0 mm 0.00 in0.0 mm
02:16 AM 9.7°F-12.4°C 4.8°F-15.1°C 80% 1.8 mph E2.9 kmh E 4.3 mph6.9 kmh 30.34 in1027.4 mb 0.00 in0.0 mm 0.00 in0.0 mm 0.00 in0.0 mm
02:21 AM 9.4°F-12.6°C 4.4°F-15.3°C 80% 1.2 mph N1.9 kmh N 3.4 mph5.5 kmh 30.34 in1027.4 mb 0.00 in0.0 mm 0.00 in0.0 mm 0.00 in0.0 mm
02:26 AM 9.0°F-12.8°C 4.2°F-15.4°C 80% 1.2 mph 1.9 kmh 2.7 mph4.3 kmh 30.34 in1027.4 mb 0.00 in0.0 mm 0.00 in0.0 mm 0.00 in0.0 mm
02:31 AM 8.6°F-13.0°C 3.8°F-15.7°C 80% 2.6 mph N4.2 kmh N 3.1 mph5.0 kmh 30.35 in1027.8 mb 0.00 in0.0 mm 0.00 in0.0 mm 0.00 in0.0 mm
02:36 AM 8.6°F-13.0°C 3.8°F-15.7°C 80% 2.3 mph 3.7 kmh 3.8 mph6.1 kmh 30.35 in1027.8 mb 0.00 in0.0 mm 0.00 in0.0 mm 0.00 in0.0 mm
02:40 AM 8.6°F-13.0°C 3.8°F-15.7°C 80% 2.8 mph NNE4.5 kmh NNE 3.8 mph6.1 kmh 30.35 in1027.8 mb 0.00 in0.0 mm 0.00 in0.0 mm 0.00 in0.0 mm
02:45 AM 8.5°F-13.1°C 3.6°F-15.8°C 80% 1.7 mph NE2.7 kmh NE 3.6 mph5.8 kmh 30.35 in1027.8 mb 0.00 in0.0 mm 0.00 in0.0 mm 0.00 in0.0 mm
02:50 AM 8.3°F-13.2°C 3.4°F-15.9°C 80% 1.5 mph NNE2.4 kmh NNE 3.4 mph5.5 kmh 30.35 in1027.8 mb 0.00 in0.0 mm 0.00 in0.0 mm 0.00 in0.0 mm
02:55 AM 7.9°F-13.4°C 3.1°F-16.1°C 80% 3.1 mph NNE5.0 kmh NNE 3.1 mph5.0 kmh 30.35 in1027.8 mb 0.00 in0.0 mm 0.00 in0.0 mm 0.00 in0.0 mm
03:01 AM 7.6°F-13.6°C 2.7°F-16.3°C 80% 2.1 mph NNE3.4 kmh NNE 3.1 mph5.0 kmh 30.34 in1027.4 mb 0.00 in0.0 mm 0.00 in0.0 mm 0.00 in0.0 mm
03:06 AM 7.6°F-13.6°C 2.7°F-16.3°C 80% 2.0 mph NNE3.2 kmh NNE 2.7 mph4.3 kmh 30.35 in1027.8 mb 0.00 in0.0 mm 0.00 in0.0 mm 0.00 in0.0 mm
03:11 AM 7.6°F-13.6°C 2.7°F-16.3°C 80% 2.0 mph NNE3.2 kmh NNE 2.0 mph3.2 kmh 30.34 in1027.4 mb 0.00 in0.0 mm 0.00 in0.0 mm 0.00 in0.0 mm
03:16 AM 7.0°F-13.9°C 2.2°F-16.6°C 80% 1.5 mph N2.4 kmh N 2.0 mph3.2 kmh 30.34 in1027.4 mb 0.00 in0.0 mm 0.00 in0.0 mm 0.00 in0.0 mm
03:21 AM 7.0°F-13.9°C 2.2°F-16.6°C 80% 1.5 mph NNW2.4 kmh NNW 2.0 mph3.2 kmh 30.34 in1027.4 mb 0.00 in0.0 mm 0.00 in0.0 mm 0.00 in0.0 mm
03:26 AM 7.2°F-13.8°C 2.6°F-16.3°C 81% 1.1 mph NNW1.8 kmh NNW 1.8 mph2.9 kmh 30.34 in1027.4 mb 0.00 in0.0 mm 0.00 in0.0 mm 0.00 in0.0 mm
03:31 AM 7.0°F-13.9°C 2.2°F-16.6°C 80% 1.1 mph 1.8 kmh 1.8 mph2.9 kmh 30.34 in1027.4 mb 0.00 in0.0 mm 0.00 in0.0 mm 0.00 in0.0 mm
03:35 AM 7.0°F-13.9°C 2.4°F-16.4°C 81% Calm Calm 1.8 mph2.9 kmh 30.34 in1027.4 mb 0.00 in0.0 mm 0.00 in0.0 mm 0.00 in0.0 mm
03:40 AM 7.2°F-13.8°C 2.6°F-16.3°C 81% 0.9 mph 1.4 kmh 1.1 mph1.8 kmh 30.34 in1027.4 mb 0.00 in0.0 mm 0.00 in0.0 mm 0.00 in0.0 mm
03:45 AM 7.2°F-13.8°C 2.6°F-16.3°C 81% 2.7 mph 4.3 kmh 2.7 mph4.3 kmh 30.34 in1027.4 mb 0.00 in0.0 mm 0.00 in0.0 mm 0.00 in0.0 mm
03:50 AM 6.8°F-14.0°C 2.0°F-16.7°C 80% 2.6 mph NNE4.2 kmh NNE 2.9 mph4.7 kmh 30.34 in1027.4 mb 0.00 in0.0 mm 0.00 in0.0 mm 0.00 in0.0 mm
03:56 AM 7.2°F-13.8°C 2.6°F-16.3°C 81% 2.6 mph NNE4.2 kmh NNE 3.1 mph5.0 kmh 30.34 in1027.4 mb 0.00 in0.0 mm 0.00 in0.0 mm 0.00 in0.0 mm
04:01 AM 7.7°F-13.5°C 3.2°F-16.0°C 81% 1.6 mph NE2.6 kmh NE 3.1 mph5.0 kmh 30.34 in1027.4 mb 0.00 in0.0 mm 0.00 in0.0 mm 0.00 in0.0 mm
04:06 AM 7.9°F-13.4°C 3.3°F-15.9°C 81% 0.4 mph E0.6 kmh E 2.0 mph3.2 kmh 30.34 in1027.4 mb 0.00 in0.0 mm 0.00 in0.0 mm 0.00 in0.0 mm
04:11 AM 7.7°F-13.5°C 3.2°F-16.0°C 81% 1.0 mph ENE1.6 kmh ENE 1.8 mph2.9 kmh 30.34 in1027.4 mb 0.00 in0.0 mm 0.00 in0.0 mm 0.00 in0.0 mm
04:16 AM 7.2°F-13.8°C 2.6°F-16.3°C 81% 1.6 mph E2.6 kmh E 1.8 mph2.9 kmh 30.34 in1027.4 mb 0.00 in0.0 mm 0.00 in0.0 mm 0.00 in0.0 mm
04:21 AM 6.8°F-14.0°C 2.3°F-16.5°C 81% 2.6 mph E4.2 kmh E 2.7 mph4.3 kmh 30.34 in1027.4 mb 0.00 in0.0 mm 0.00 in0.0 mm 0.00 in0.0 mm
04:26 AM 6.8°F-14.0°C 2.3°F-16.5°C 81% 1.3 mph NE2.1 kmh NE 2.7 mph4.3 kmh 30.34 in1027.4 mb 0.00 in0.0 mm 0.00 in0.0 mm 0.00 in0.0 mm
04:31 AM 6.7°F-14.1°C 2.1°F-16.6°C 81% 1.1 mph NNW1.8 kmh NNW 1.8 mph2.9 kmh 30.35 in1027.8 mb 0.00 in0.0 mm 0.00 in0.0 mm 0.00 in0.0 mm
04:36 AM 6.5°F-14.2°C 1.9°F-16.7°C 81% 0.4 mph NNW0.6 kmh NNW 1.8 mph2.9 kmh 30.35 in1027.8 mb 0.00 in0.0 mm 0.00 in0.0 mm 0.00 in0.0 mm
04:41 AM 6.3°F-14.3°C 1.7°F-16.8°C 81% 0.9 mph NE1.4 kmh NE 1.1 mph1.8 kmh 30.35 in1027.8 mb 0.00 in0.0 mm 0.00 in0.0 mm 0.00 in0.0 mm
04:46 AM 6.1°F-14.4°C 1.5°F-16.9°C 81% 0.6 mph NNE1.0 kmh NNE 1.1 mph1.8 kmh 30.35 in1027.8 mb 0.00 in0.0 mm 0.00 in0.0 mm 0.00 in0.0 mm
04:51 AM 5.9°F-14.5°C 1.4°F-17.0°C 81% 3.5 mph 5.6 kmh 4.5 mph7.2 kmh 30.35 in1027.8 mb 0.00 in0.0 mm 0.00 in0.0 mm 0.00 in0.0 mm
04:56 AM 5.6°F-14.7°C 1.0°F-17.2°C 81% 1.5 mph NE2.4 kmh NE 4.5 mph7.2 kmh 30.35 in1027.8 mb 0.00 in0.0 mm 0.00 in0.0 mm 0.00 in0.0 mm
05:01 AM 5.4°F-14.8°C 0.8°F-17.3°C 81% 1.9 mph NNE3.1 kmh NNE 4.5 mph7.2 kmh 30.35 in1027.8 mb 0.00 in0.0 mm 0.00 in0.0 mm 0.00 in0.0 mm
05:06 AM 5.4°F-14.8°C 0.8°F-17.3°C 81% 3.2 mph N5.1 kmh N 3.4 mph5.5 kmh 30.35 in1027.8 mb 0.00 in0.0 mm 0.00 in0.0 mm 0.00 in0.0 mm
05:11 AM 5.4°F-14.8°C 0.8°F-17.3°C 81% 2.3 mph NE3.7 kmh NE 3.4 mph5.5 kmh 30.35 in1027.8 mb 0.00 in0.0 mm 0.00 in0.0 mm 0.00 in0.0 mm
05:16 AM 5.4°F-14.8°C 0.8°F-17.3°C 81% 1.8 mph NNE2.9 kmh NNE 2.7 mph4.3 kmh 30.35 in1027.8 mb 0.00 in0.0 mm 0.00 in0.0 mm 0.00 in0.0 mm
05:21 AM 5.4°F-14.8°C 0.8°F-17.3°C 81% 1.8 mph NNE2.9 kmh NNE 1.8 mph2.9 kmh 30.35 in1027.8 mb 0.00 in0.0 mm 0.00 in0.0 mm 0.00 in0.0 mm
05:26 AM 5.4°F-14.8°C 0.8°F-17.3°C 81% 1.8 mph NNE2.9 kmh NNE 1.8 mph2.9 kmh 30.35 in1027.8 mb 0.00 in0.0 mm 0.00 in0.0 mm 0.00 in0.0 mm
05:31 AM 5.4°F-14.8°C 0.8°F-17.3°C 81% 5.2 mph E8.4 kmh E 6.0 mph9.7 kmh 30.36 in1028.1 mb 0.00 in0.0 mm 0.00 in0.0 mm 0.00 in0.0 mm
05:36 AM 5.4°F-14.8°C 0.8°F-17.3°C 81% 6.4 mph E10.3 kmh E 6.9 mph11.1 kmh 30.35 in1027.8 mb 0.00 in0.0 mm 0.00 in0.0 mm 0.00 in0.0 mm
05:41 AM 5.6°F-14.7°C 1.0°F-17.2°C 81% 5.4 mph ENE8.7 kmh ENE 6.9 mph11.1 kmh 30.35 in1027.8 mb 0.00 in0.0 mm 0.00 in0.0 mm 0.00 in0.0 mm
05:46 AM 5.8°F-14.6°C 1.2°F-17.1°C 81% 3.9 mph ENE6.3 kmh ENE 6.3 mph10.1 kmh 30.35 in1027.8 mb 0.00 in0.0 mm 0.00 in0.0 mm 0.00 in0.0 mm
05:51 AM 5.8°F-14.6°C 1.5°F-16.9°C 82% 1.9 mph ENE3.1 kmh ENE 4.9 mph7.9 kmh 30.35 in1027.8 mb 0.00 in0.0 mm 0.00 in0.0 mm 0.00 in0.0 mm
05:56 AM 5.8°F-14.6°C 1.5°F-16.9°C 82% 0.9 mph 1.4 kmh 3.8 mph6.1 kmh 30.36 in1028.1 mb 0.00 in0.0 mm 0.00 in0.0 mm 0.00 in0.0 mm
06:02 AM 5.4°F-14.8°C 0.8°F-17.3°C 81% 1.8 mph NE2.9 kmh NE 2.0 mph3.2 kmh 30.36 in1028.1 mb 0.00 in0.0 mm 0.00 in0.0 mm 0.00 in0.0 mm
06:07 AM 5.4°F-14.8°C 0.5°F-17.5°C 80% 3.0 mph 4.8 kmh 3.1 mph5.0 kmh 30.36 in1028.1 mb 0.00 in0.0 mm 0.00 in0.0 mm 0.00 in0.0 mm
06:12 AM 5.2°F-14.9°C 0.4°F-17.6°C 80% 3.4 mph NNE5.5 kmh NNE 4.5 mph7.2 kmh 30.36 in1028.1 mb 0.00 in0.0 mm 0.00 in0.0 mm 0.00 in0.0 mm
06:17 AM 5.2°F-14.9°C 0.6°F-17.4°C 81% Calm Calm 4.5 mph7.2 kmh 30.36 in1028.1 mb 0.00 in0.0 mm 0.00 in0.0 mm 0.00 in0.0 mm
06:22 AM 5.2°F-14.9°C 0.6°F-17.4°C 81% Calm Calm 1.8 mph2.9 kmh 30.36 in1028.1 mb 0.00 in0.0 mm 0.00 in0.0 mm 0.00 in0.0 mm
06:26 AM 5.2°F-14.9°C 0.6°F-17.4°C 81% Calm Calm -- 30.36 in1028.1 mb 0.00 in0.0 mm 0.00 in0.0 mm 0.00 in0.0 mm
06:31 AM 5.2°F-14.9°C 0.6°F-17.4°C 81% Calm Calm -- 30.36 in1028.1 mb 0.00 in0.0 mm 0.00 in0.0 mm 0.00 in0.0 mm
06:36 AM 4.9°F-15.1°C 0.3°F-17.6°C 81% Calm Calm -- 30.36 in1028.1 mb 0.00 in0.0 mm 0.00 in0.0 mm 0.00 in0.0 mm
06:41 AM 4.7°F-15.2°C 0.1°F-17.7°C 81% Calm Calm 0.2 mph0.3 kmh 30.36 in1028.1 mb 0.00 in0.0 mm 0.00 in0.0 mm 0.00 in0.0 mm
06:46 AM 4.7°F-15.2°C 0.1°F-17.7°C 81% Calm Calm 0.2 mph0.3 kmh 30.36 in1028.1 mb 0.00 in0.0 mm 0.00 in0.0 mm 0.00 in0.0 mm
06:51 AM 4.7°F-15.2°C 0.1°F-17.7°C 81% Calm Calm -- 30.37 in1028.4 mb 0.00 in0.0 mm 0.00 in0.0 mm 0.00 in0.0 mm
06:56 AM 4.7°F-15.2°C 0.1°F-17.7°C 81% Calm Calm -- 30.36 in1028.1 mb 0.00 in0.0 mm 0.00 in0.0 mm 0.00 in0.0 mm
07:02 AM 4.7°F-15.2°C 0.1°F-17.7°C 81% Calm Calm -- 30.37 in1028.4 mb 0.00 in0.0 mm 0.00 in0.0 mm 0.00 in0.0 mm
07:07 AM 4.7°F-15.2°C 0.1°F-17.7°C 81% Calm Calm -- 30.37 in1028.4 mb 0.00 in0.0 mm 0.00 in0.0 mm 0.00 in0.0 mm
07:12 AM 4.7°F-15.2°C 0.1°F-17.7°C 81% Calm Calm -- 30.37 in1028.4 mb 0.00 in0.0 mm 0.00 in0.0 mm 0.00 in0.0 mm
07:17 AM 4.9°F-15.1°C 0.3°F-17.6°C 81% Calm Calm -- 30.37 in1028.4 mb 0.00 in0.0 mm 0.00 in0.0 mm 0.00 in0.0 mm
07:22 AM 5.2°F-14.9°C 0.6°F-17.4°C 81% Calm Calm -- 30.37 in1028.4 mb 0.00 in0.0 mm 0.00 in0.0 mm 0.00 in0.0 mm
07:27 AM 5.6°F-14.7°C 1.3°F-17.1°C 82% 0.9 mph ENE1.4 kmh ENE 0.9 mph1.4 kmh 30.37 in1028.4 mb 0.00 in0.0 mm 0.00 in0.0 mm 0.00 in0.0 mm
07:32 AM 6.3°F-14.3°C 2.2°F-16.6°C 83% Calm Calm 0.9 mph1.4 kmh 30.37 in1028.4 mb 0.00 in0.0 mm 0.00 in0.0 mm 0.00 in0.0 mm
07:37 AM 7.0°F-13.9°C 2.9°F-16.2°C 83% Calm Calm 0.9 mph1.4 kmh 30.37 in1028.4 mb 0.00 in0.0 mm 0.00 in0.0 mm 0.00 in0.0 mm
07:42 AM 7.7°F-13.5°C 3.6°F-15.8°C 83% 0.2 mph ENE0.3 kmh ENE 0.7 mph1.1 kmh 30.37 in1028.4 mb 0.00 in0.0 mm 0.00 in0.0 mm 0.00 in0.0 mm
07:47 AM 8.5°F-13.1°C 4.3°F-15.4°C 83% 0.2 mph E0.3 kmh E 0.7 mph1.1 kmh 30.37 in1028.4 mb 0.00 in0.0 mm 0.00 in0.0 mm 0.00 in0.0 mm
07:52 AM 9.2°F-12.7°C 5.1°F-14.9°C 83% 0.2 mph E0.3 kmh E 0.7 mph1.1 kmh 30.37 in1028.4 mb 0.00 in0.0 mm 0.00 in0.0 mm 0.00 in0.0 mm
07:56 AM 9.7°F-12.4°C 5.6°F-14.7°C 83% Calm Calm 0.2 mph0.3 kmh 30.37 in1028.4 mb 0.00 in0.0 mm 0.00 in0.0 mm 0.00 in0.0 mm
08:02 AM 10.3°F-12.1°C 6.0°F-14.4°C 83% Calm Calm 0.2 mph0.3 kmh 30.37 in1028.4 mb 0.00 in0.0 mm 0.00 in0.0 mm 0.00 in0.0 mm
08:07 AM 10.6°F-11.9°C 6.4°F-14.2°C 83% Calm Calm -- 30.37 in1028.4 mb 0.00 in0.0 mm 0.00 in0.0 mm 0.00 in0.0 mm
08:12 AM 11.0°F-11.7°C 6.8°F-14.0°C 83% 0.6 mph E1.0 kmh E 0.7 mph1.1 kmh 30.37 in1028.4 mb 0.00 in0.0 mm 0.00 in0.0 mm 0.00 in0.0 mm
08:17 AM 11.2°F-11.6°C 6.9°F-13.9°C 83% 0.4 mph ENE0.6 kmh ENE 1.1 mph1.8 kmh 30.37 in1028.4 mb 0.00 in0.0 mm 0.00 in0.0 mm 0.00 in0.0 mm
08:22 AM 11.9°F-11.2°C 7.7°F-13.5°C 83% 1.0 mph NE1.6 kmh NE 1.1 mph1.8 kmh 30.37 in1028.4 mb 0.00 in0.0 mm 0.00 in0.0 mm 0.00 in0.0 mm
08:27 AM 11.9°F-11.2°C 7.7°F-13.5°C 83% 1.1 mph E1.8 kmh E 1.1 mph1.8 kmh 30.37 in1028.4 mb 0.00 in0.0 mm 0.00 in0.0 mm 0.00 in0.0 mm
08:32 AM 12.2°F-11.0°C 8.0°F-13.3°C 83% 0.6 mph E1.0 kmh E 1.6 mph2.6 kmh 30.38 in1028.8 mb 0.00 in0.0 mm 0.00 in0.0 mm 0.00 in0.0 mm
08:37 AM 12.4°F-10.9°C 8.2°F-13.2°C 83% 2.6 mph ENE4.2 kmh ENE 2.7 mph4.3 kmh 30.38 in1028.8 mb 0.00 in0.0 mm 0.00 in0.0 mm 0.00 in0.0 mm
08:42 AM 12.2°F-11.0°C 8.0°F-13.3°C 83% 2.0 mph E3.2 kmh E 2.7 mph4.3 kmh 30.37 in1028.4 mb 0.00 in0.0 mm 0.00 in0.0 mm 0.00 in0.0 mm
08:47 AM 12.1°F-11.1°C 7.8°F-13.4°C 83% 2.3 mph E3.7 kmh E 2.5 mph4.0 kmh 30.37 in1028.4 mb 0.00 in0.0 mm 0.00 in0.0 mm 0.00 in0.0 mm
08:52 AM 12.2°F-11.0°C 8.0°F-13.3°C 83% 2.5 mph E4.0 kmh E 2.5 mph4.0 kmh 30.37 in1028.4 mb 0.00 in0.0 mm 0.00 in0.0 mm 0.00 in0.0 mm
08:57 AM 12.6°F-10.8°C 8.4°F-13.1°C 83% 2.1 mph E3.4 kmh E 2.7 mph4.3 kmh 30.38 in1028.8 mb 0.00 in0.0 mm 0.00 in0.0 mm 0.00 in0.0 mm
09:02 AM 13.1°F-10.5°C 8.9°F-12.8°C 83% 0.3 mph NE0.5 kmh NE 2.7 mph4.3 kmh 30.38 in1028.8 mb 0.00 in0.0 mm 0.00 in0.0 mm 0.00 in0.0 mm
09:07 AM 14.0°F-10.0°C 10.1°F-12.2°C 84% 1.0 mph ENE1.6 kmh ENE 2.2 mph3.5 kmh 30.38 in1028.8 mb 0.00 in0.0 mm 0.00 in0.0 mm 0.00 in0.0 mm
09:12 AM 14.8°F-9.6°C 10.8°F-11.8°C 84% 1.6 mph E2.6 kmh E 1.8 mph2.9 kmh 30.38 in1028.8 mb 0.00 in0.0 mm 0.00 in0.0 mm 0.00 in0.0 mm
09:17 AM 15.5°F-9.2°C 11.4°F-11.4°C 84% 1.7 mph ENE2.7 kmh ENE 2.5 mph4.0 kmh 30.38 in1028.8 mb 0.00 in0.0 mm 0.00 in0.0 mm 0.00 in0.0 mm
09:22 AM 16.2°F-8.8°C 12.2°F-11.0°C 84% 1.6 mph ENE2.6 kmh ENE 2.5 mph4.0 kmh 30.38 in1028.8 mb 0.00 in0.0 mm 0.00 in0.0 mm 0.00 in0.0 mm
09:27 AM 16.9°F-8.4°C 12.8°F-10.7°C 84% 1.6 mph E2.6 kmh E 2.0 mph3.2 kmh 30.37 in1028.4 mb 0.00 in0.0 mm 0.00 in0.0 mm 0.00 in0.0 mm
09:32 AM 18.0°F-7.8°C 13.9°F-10.1°C 84% 1.7 mph E2.7 kmh E 2.0 mph3.2 kmh 30.37 in1028.4 mb 0.00 in0.0 mm 0.00 in0.0 mm 0.00 in0.0 mm
09:37 AM 18.9°F-7.3°C 14.5°F-9.7°C 83% 2.5 mph E4.0 kmh E 2.5 mph4.0 kmh 30.37 in1028.4 mb 0.00 in0.0 mm 0.00 in0.0 mm 0.00 in0.0 mm
09:42 AM 19.6°F-6.9°C 15.2°F-9.3°C 83% 2.1 mph ESE3.4 kmh ESE 2.5 mph4.0 kmh 30.37 in1028.4 mb 0.00 in0.0 mm 0.00 in0.0 mm 0.00 in0.0 mm
09:47 AM 20.9°F-6.2°C 16.7°F-8.5°C 84% 1.5 mph E2.4 kmh E 2.5 mph4.0 kmh 30.37 in1028.4 mb 0.00 in0.0 mm 0.00 in0.0 mm 0.00 in0.0 mm
09:52 AM 22.0°F-5.6°C 17.6°F-8.0°C 83% 1.3 mph ESE2.1 kmh ESE 2.0 mph3.2 kmh 30.37 in1028.4 mb 0.00 in0.0 mm 0.00 in0.0 mm 0.00 in0.0 mm
09:57 AM 22.7°F-5.2°C 18.0°F-7.8°C 82% 1.3 mph E2.1 kmh E 1.8 mph2.9 kmh 30.38 in1028.8 mb 0.00 in0.0 mm 0.00 in0.0 mm 0.00 in0.0 mm
10:03 AM 23.4°F-4.8°C 18.5°F-7.5°C 81% 2.6 mph E4.2 kmh E 2.7 mph4.3 kmh 30.37 in1028.4 mb 0.00 in0.0 mm 0.00 in0.0 mm 0.00 in0.0 mm
10:08 AM 24.1°F-4.4°C 18.9°F-7.3°C 80% 2.8 mph E4.5 kmh E 3.1 mph5.0 kmh 30.38 in1028.8 mb 0.00 in0.0 mm 0.00 in0.0 mm 0.00 in0.0 mm
10:12 AM 24.8°F-4.0°C 19.9°F-6.7°C 81% 3.1 mph E5.0 kmh E 3.4 mph5.5 kmh 30.37 in1028.4 mb 0.00 in0.0 mm 0.00 in0.0 mm 0.00 in0.0 mm
10:17 AM 25.4°F-3.7°C 20.1°F-6.6°C 80% 4.2 mph E6.8 kmh E 4.9 mph7.9 kmh 30.37 in1028.4 mb 0.00 in0.0 mm 0.00 in0.0 mm 0.00 in0.0 mm
10:22 AM 25.6°F-3.6°C 19.6°F-6.9°C 78% 6.2 mph E10.0 kmh E 6.9 mph11.1 kmh 30.37 in1028.4 mb 0.00 in0.0 mm 0.00 in0.0 mm 0.00 in0.0 mm
10:27 AM 25.2°F-3.8°C 19.0°F-7.2°C 77% 6.7 mph ENE10.8 kmh ENE 7.6 mph12.2 kmh 30.37 in1028.4 mb 0.00 in0.0 mm 0.00 in0.0 mm 0.00 in0.0 mm
10:32 AM 25.2°F-3.8°C 19.0°F-7.2°C 77% 7.1 mph E11.4 kmh E 7.6 mph12.2 kmh 30.37 in1028.4 mb 0.00 in0.0 mm 0.00 in0.0 mm 0.00 in0.0 mm
10:37 AM 25.2°F-3.8°C 18.0°F-7.8°C 74% 7.2 mph E11.6 kmh E 8.1 mph13.0 kmh 30.37 in1028.4 mb 0.00 in0.0 mm 0.00 in0.0 mm 0.00 in0.0 mm
10:42 AM 25.2°F-3.8°C 18.4°F-7.6°C 75% 5.2 mph NE8.4 kmh NE 8.1 mph13.0 kmh 30.37 in1028.4 mb 0.00 in0.0 mm 0.00 in0.0 mm 0.00 in0.0 mm
10:47 AM 25.4°F-3.7°C 18.2°F-7.7°C 74% 5.2 mph E8.4 kmh E 7.6 mph12.2 kmh 30.37 in1028.4 mb 0.00 in0.0 mm 0.00 in0.0 mm 0.00 in0.0 mm
10:52 AM 24.8°F-4.0°C 17.6°F-8.0°C 74% 6.7 mph NE10.8 kmh NE 7.4 mph11.9 kmh 30.36 in1028.1 mb 0.00 in0.0 mm 0.00 in0.0 mm 0.00 in0.0 mm
10:57 AM 24.1°F-4.4°C 16.7°F-8.5°C 73% 6.2 mph NE10.0 kmh NE 7.4 mph11.9 kmh 30.36 in1028.1 mb 0.00 in0.0 mm 0.00 in0.0 mm 0.00 in0.0 mm
11:03 AM 23.6°F-4.7°C 15.8°F-9.0°C 72% 5.3 mph NE8.5 kmh NE 7.2 mph11.6 kmh 30.36 in1028.1 mb 0.00 in0.0 mm 0.00 in0.0 mm 0.00 in0.0 mm
11:08 AM 23.2°F-4.9°C 15.6°F-9.1°C 72% 6.2 mph N10.0 kmh N 6.9 mph11.1 kmh 30.36 in1028.1 mb 0.00 in0.0 mm 0.00 in0.0 mm 0.00 in0.0 mm
11:13 AM 23.4°F-4.8°C 16.0°F-8.9°C 73% 4.7 mph NE7.6 kmh NE 6.3 mph10.1 kmh 30.36 in1028.1 mb 0.00 in0.0 mm 0.00 in0.0 mm 0.00 in0.0 mm
11:18 AM 24.3°F-4.3°C 16.8°F-8.4°C 73% 3.1 mph E5.0 kmh E 5.6 mph9.0 kmh 30.36 in1028.1 mb 0.00 in0.0 mm 0.00 in0.0 mm 0.00 in0.0 mm
11:23 AM 26.3°F-3.2°C 19.4°F-7.0°C 75% 4.1 mph NE6.6 kmh NE 5.6 mph9.0 kmh 30.35 in1027.8 mb 0.00 in0.0 mm 0.00 in0.0 mm 0.00 in0.0 mm
11:28 AM 27.7°F-2.4°C 20.5°F-6.4°C 74% 3.9 mph NE6.3 kmh NE 4.5 mph7.2 kmh 30.35 in1027.8 mb 0.00 in0.0 mm 0.00 in0.0 mm 0.00 in0.0 mm
11:33 AM 28.6°F-1.9°C 21.1°F-6.1°C 73% 3.4 mph NE5.5 kmh NE 5.4 mph8.7 kmh 30.34 in1027.4 mb 0.00 in0.0 mm 0.00 in0.0 mm 0.00 in0.0 mm
11:38 AM 30.2°F-1.0°C 22.2°F-5.4°C 72% 4.6 mph ENE7.4 kmh ENE 5.4 mph8.7 kmh 30.34 in1027.4 mb 0.00 in0.0 mm 0.00 in0.0 mm 0.00 in0.0 mm
11:42 AM 31.3°F-0.4°C 23.1°F-4.9°C 71% 3.6 mph ENE5.8 kmh ENE 4.7 mph7.6 kmh 30.34 in1027.4 mb 0.00 in0.0 mm 0.00 in0.0 mm 0.00 in0.0 mm
11:47 AM 32.9°F0.5°C 24.2°F-4.3°C 70% 1.5 mph E2.4 kmh E 4.5 mph7.2 kmh 30.33 in1027.1 mb 0.00 in0.0 mm 0.00 in0.0 mm 0.00 in0.0 mm
11:52 AM 34.9°F1.6°C 26.1°F-3.3°C 70% 1.1 mph ESE1.8 kmh ESE 3.4 mph5.5 kmh 30.33 in1027.1 mb 0.00 in0.0 mm 0.00 in0.0 mm 0.00 in0.0 mm
11:57 AM 36.0°F2.2°C 26.8°F-2.9°C 69% 0.5 mph SSE0.8 kmh SSE 1.8 mph2.9 kmh 30.33 in1027.1 mb 0.00 in0.0 mm 0.00 in0.0 mm 0.00 in0.0 mm
12:03 PM 36.9°F2.7°C 27.0°F-2.8°C 67% 0.9 mph SE1.4 kmh SE 1.6 mph2.6 kmh 30.33 in1027.1 mb 0.00 in0.0 mm 0.00 in0.0 mm 0.00 in0.0 mm
12:08 PM 37.6°F3.1°C 27.3°F-2.6°C 66% 1.7 mph SE2.7 kmh SE 2.2 mph3.5 kmh 30.33 in1027.1 mb 0.00 in0.0 mm 0.00 in0.0 mm 0.00 in0.0 mm
12:13 PM 38.5°F3.6°C 28.1°F-2.2°C 66% 2.3 mph SE3.7 kmh SE 2.5 mph4.0 kmh 30.33 in1027.1 mb 0.00 in0.0 mm 0.00 in0.0 mm 0.00 in0.0 mm
12:18 PM 39.6°F4.2°C 28.7°F-1.8°C 65% 2.3 mph SE3.7 kmh SE 2.5 mph4.0 kmh 30.32 in1026.8 mb 0.00 in0.0 mm 0.00 in0.0 mm 0.00 in0.0 mm
12:23 PM 40.3°F4.6°C 29.4°F-1.4°C 65% 0.9 mph SE1.4 kmh SE 2.5 mph4.0 kmh 30.32 in1026.8 mb 0.00 in0.0 mm 0.00 in0.0 mm 0.00 in0.0 mm
12:28 PM 41.0°F5.0°C 29.8°F-1.2°C 64% 1.5 mph SE2.4 kmh SE 2.2 mph3.5 kmh 30.32 in1026.8 mb 0.00 in0.0 mm 0.00 in0.0 mm 0.00 in0.0 mm
12:33 PM 41.4°F5.2°C 29.3°F-1.5°C 62% 1.5 mph SE2.4 kmh SE 2.2 mph3.5 kmh 30.31 in1026.4 mb 0.00 in0.0 mm 0.00 in0.0 mm 0.00 in0.0 mm
12:38 PM 41.8°F5.4°C 29.7°F-1.3°C 62% 0.4 mph SSE0.6 kmh SSE 2.2 mph3.5 kmh 30.31 in1026.4 mb 0.00 in0.0 mm 0.00 in0.0 mm 0.00 in0.0 mm
12:43 PM 42.1°F5.6°C 30.0°F-1.1°C 62% 1.4 mph SE2.3 kmh SE 2.0 mph3.2 kmh 30.31 in1026.4 mb 0.00 in0.0 mm 0.00 in0.0 mm 0.00 in0.0 mm
12:48 PM 42.7°F5.9°C 30.2°F-1.0°C 61% 1.3 mph SE2.1 kmh SE 1.8 mph2.9 kmh 30.31 in1026.4 mb 0.00 in0.0 mm 0.00 in0.0 mm 0.00 in0.0 mm
12:53 PM 43.2°F6.2°C 30.2°F-1.0°C 60% Calm Calm 1.8 mph2.9 kmh 30.31 in1026.4 mb 0.00 in0.0 mm 0.00 in0.0 mm 0.00 in0.0 mm
12:58 PM 43.9°F6.6°C 31.0°F-0.6°C 60% 2.8 mph E4.5 kmh E 3.4 mph5.5 kmh 30.31 in1026.4 mb 0.00 in0.0 mm 0.00 in0.0 mm 0.00 in0.0 mm
01:03 PM 44.6°F7.0°C 31.7°F-0.2°C 60% 2.5 mph SE4.0 kmh SE 3.4 mph5.5 kmh 30.31 in1026.4 mb 0.00 in0.0 mm 0.00 in0.0 mm 0.00 in0.0 mm
01:08 PM 45.4°F7.4°C 31.9°F-0.1°C 59% 4.3 mph ESE6.9 kmh ESE 5.4 mph8.7 kmh 30.30 in1026.1 mb 0.00 in0.0 mm 0.00 in0.0 mm 0.00 in0.0 mm
01:13 PM 45.7°F7.6°C 32.2°F0.1°C 59% 5.1 mph E8.2 kmh E 5.4 mph8.7 kmh 30.30 in1026.1 mb 0.00 in0.0 mm 0.00 in0.0 mm 0.00 in0.0 mm
01:18 PM 45.7°F7.6°C 31.3°F-0.4°C 57% 6.0 mph NE9.7 kmh NE 6.3 mph10.1 kmh 30.30 in1026.1 mb 0.00 in0.0 mm 0.00 in0.0 mm 0.00 in0.0 mm
01:23 PM 43.7°F6.5°C 28.2°F-2.1°C 54% 6.0 mph E9.7 kmh E 7.4 mph11.9 kmh 30.30 in1026.1 mb 0.00 in0.0 mm 0.00 in0.0 mm 0.00 in0.0 mm
01:28 PM 43.0°F6.1°C 28.8°F-1.8°C 57% 7.0 mph E11.3 kmh E 8.1 mph13.0 kmh 30.30 in1026.1 mb 0.00 in0.0 mm 0.00 in0.0 mm 0.00 in0.0 mm
01:33 PM 42.5°F5.8°C 28.3°F-2.1°C 57% 6.7 mph E10.8 kmh E 8.1 mph13.0 kmh 30.30 in1026.1 mb 0.00 in0.0 mm 0.00 in0.0 mm 0.00 in0.0 mm
01:38 PM 42.1°F5.6°C 27.9°F-2.3°C 57% 6.1 mph E9.8 kmh E 7.6 mph12.2 kmh 30.29 in1025.7 mb 0.00 in0.0 mm 0.00 in0.0 mm 0.00 in0.0 mm
01:43 PM 41.9°F5.5°C 28.2°F-2.1°C 58% 5.7 mph E9.2 kmh E 7.6 mph12.2 kmh 30.29 in1025.7 mb 0.00 in0.0 mm 0.00 in0.0 mm 0.00 in0.0 mm
01:48 PM 41.9°F5.5°C 28.2°F-2.1°C 58% 6.0 mph E9.7 kmh E 7.6 mph12.2 kmh 30.29 in1025.7 mb 0.00 in0.0 mm 0.00 in0.0 mm 0.00 in0.0 mm
01:53 PM 42.1°F5.6°C 28.4°F-2.0°C 58% 5.3 mph E8.5 kmh E 7.6 mph12.2 kmh 30.29 in1025.7 mb 0.00 in0.0 mm 0.00 in0.0 mm 0.00 in0.0 mm
01:58 PM 42.1°F5.6°C 27.9°F-2.3°C 57% 5.5 mph E8.9 kmh E 7.6 mph12.2 kmh 30.29 in1025.7 mb 0.00 in0.0 mm 0.00 in0.0 mm 0.00 in0.0 mm
02:03 PM 41.9°F5.5°C 27.7°F-2.4°C 57% 5.9 mph E9.5 kmh E 6.5 mph10.5 kmh 30.29 in1025.7 mb 0.00 in0.0 mm 0.00 in0.0 mm 0.00 in0.0 mm
02:08 PM 41.4°F5.2°C 27.3°F-2.6°C 57% 3.9 mph E6.3 kmh E 6.5 mph10.5 kmh 30.29 in1025.7 mb 0.00 in0.0 mm 0.00 in0.0 mm 0.00 in0.0 mm
02:13 PM 41.8°F5.4°C 28.0°F-2.2°C 58% 2.3 mph E3.7 kmh E 4.9 mph7.9 kmh 30.29 in1025.7 mb 0.00 in0.0 mm 0.00 in0.0 mm 0.00 in0.0 mm
02:18 PM 42.1°F5.6°C 27.9°F-2.3°C 57% 3.6 mph E5.8 kmh E 4.3 mph6.9 kmh 30.29 in1025.7 mb 0.00 in0.0 mm 0.00 in0.0 mm 0.00 in0.0 mm
02:23 PM 42.8°F6.0°C 28.6°F-1.9°C 57% 3.5 mph E5.6 kmh E 4.3 mph6.9 kmh 30.29 in1025.7 mb 0.00 in0.0 mm 0.00 in0.0 mm 0.00 in0.0 mm
02:28 PM 43.0°F6.1°C 28.8°F-1.8°C 57% 4.3 mph E6.9 kmh E 5.4 mph8.7 kmh 30.29 in1025.7 mb 0.00 in0.0 mm 0.00 in0.0 mm 0.00 in0.0 mm
02:33 PM 43.2°F6.2°C 28.9°F-1.7°C 57% 4.3 mph ESE6.9 kmh ESE 5.8 mph9.3 kmh 30.28 in1025.4 mb 0.00 in0.0 mm 0.00 in0.0 mm 0.00 in0.0 mm
02:38 PM 43.0°F6.1°C 28.4°F-2.0°C 56% 3.7 mph E6.0 kmh E 5.8 mph9.3 kmh 30.29 in1025.7 mb 0.00 in0.0 mm 0.00 in0.0 mm 0.00 in0.0 mm
02:43 PM 43.4°F6.3°C 28.7°F-1.8°C 56% 3.2 mph E5.1 kmh E 4.7 mph7.6 kmh 30.29 in1025.7 mb 0.00 in0.0 mm 0.00 in0.0 mm 0.00 in0.0 mm
02:48 PM 43.6°F6.4°C 28.8°F-1.8°C 56% 2.8 mph E4.5 kmh E 3.8 mph6.1 kmh 30.28 in1025.4 mb 0.00 in0.0 mm 0.00 in0.0 mm 0.00 in0.0 mm
02:53 PM 43.4°F6.3°C 28.3°F-2.1°C 55% 3.2 mph ENE5.1 kmh ENE 3.6 mph5.8 kmh 30.28 in1025.4 mb 0.00 in0.0 mm 0.00 in0.0 mm 0.00 in0.0 mm
02:58 PM 43.2°F6.2°C 28.1°F-2.2°C 55% 3.3 mph E5.3 kmh E 3.6 mph5.8 kmh 30.28 in1025.4 mb 0.00 in0.0 mm 0.00 in0.0 mm 0.00 in0.0 mm
03:04 PM 42.8°F6.0°C 27.7°F-2.4°C 55% 1.9 mph E3.1 kmh E 3.6 mph5.8 kmh 30.28 in1025.4 mb 0.00 in0.0 mm 0.00 in0.0 mm 0.00 in0.0 mm
03:09 PM 42.1°F5.6°C 26.7°F-2.9°C 54% 2.1 mph NE3.4 kmh NE 2.9 mph4.7 kmh 30.28 in1025.4 mb 0.00 in0.0 mm 0.00 in0.0 mm 0.00 in0.0 mm
03:14 PM 41.8°F5.4°C 26.7°F-2.9°C 55% 1.5 mph NE2.4 kmh NE 2.9 mph4.7 kmh 30.28 in1025.4 mb 0.00 in0.0 mm 0.00 in0.0 mm 0.00 in0.0 mm
03:19 PM 41.9°F5.5°C 26.9°F-2.8°C 55% 2.8 mph NE4.5 kmh NE 3.1 mph5.0 kmh 30.28 in1025.4 mb 0.00 in0.0 mm 0.00 in0.0 mm 0.00 in0.0 mm
03:23 PM 41.4°F5.2°C 26.4°F-3.1°C 55% 2.2 mph ENE3.5 kmh ENE 3.1 mph5.0 kmh 30.28 in1025.4 mb 0.00 in0.0 mm 0.00 in0.0 mm 0.00 in0.0 mm
03:28 PM 41.6°F5.3°C 26.6°F-3.0°C 55% 2.2 mph ENE3.5 kmh ENE 2.5 mph4.0 kmh 30.28 in1025.4 mb 0.00 in0.0 mm 0.00 in0.0 mm 0.00 in0.0 mm
03:33 PM 41.8°F5.4°C 26.7°F-2.9°C 55% 1.1 mph ENE1.8 kmh ENE 2.5 mph4.0 kmh 30.28 in1025.4 mb 0.00 in0.0 mm 0.00 in0.0 mm 0.00 in0.0 mm
03:38 PM 42.1°F5.6°C 27.0°F-2.8°C 55% 1.7 mph E2.7 kmh E 1.8 mph2.9 kmh 30.28 in1025.4 mb 0.00 in0.0 mm 0.00 in0.0 mm 0.00 in0.0 mm
03:43 PM 42.1°F5.6°C 27.0°F-2.8°C 55% 2.1 mph E3.4 kmh E 2.5 mph4.0 kmh 30.28 in1025.4 mb 0.00 in0.0 mm 0.00 in0.0 mm 0.00 in0.0 mm
03:48 PM 42.1°F5.6°C 27.0°F-2.8°C 55% 1.5 mph E2.4 kmh E 2.5 mph4.0 kmh 30.28 in1025.4 mb 0.00 in0.0 mm 0.00 in0.0 mm 0.00 in0.0 mm
03:53 PM 41.8°F5.4°C 26.7°F-2.9°C 55% 2.6 mph ESE4.2 kmh ESE 2.7 mph4.3 kmh 30.28 in1025.4 mb 0.00 in0.0 mm 0.00 in0.0 mm 0.00 in0.0 mm
03:58 PM 41.4°F5.2°C 26.4°F-3.1°C 55% 2.0 mph ESE3.2 kmh ESE 2.7 mph4.3 kmh 30.28 in1025.4 mb 0.00 in0.0 mm 0.00 in0.0 mm 0.00 in0.0 mm
04:04 PM 41.2°F5.1°C 26.2°F-3.2°C 55% 1.5 mph ESE2.4 kmh ESE 2.5 mph4.0 kmh 30.28 in1025.4 mb 0.00 in0.0 mm 0.00 in0.0 mm 0.00 in0.0 mm
04:09 PM 41.0°F5.0°C 26.0°F-3.3°C 55% 2.0 mph ESE3.2 kmh ESE 2.5 mph4.0 kmh 30.28 in1025.4 mb 0.00 in0.0 mm 0.00 in0.0 mm 0.00 in0.0 mm
04:14 PM 40.5°F4.7°C 25.5°F-3.6°C 55% 2.3 mph E3.7 kmh E 2.9 mph4.7 kmh 30.28 in1025.4 mb 0.00 in0.0 mm 0.00 in0.0 mm 0.00 in0.0 mm
04:19 PM 40.0°F4.4°C 25.4°F-3.7°C 56% 2.8 mph ESE4.5 kmh ESE 3.1 mph5.0 kmh 30.28 in1025.4 mb 0.00 in0.0 mm 0.00 in0.0 mm 0.00 in0.0 mm
04:24 PM 39.6°F4.2°C 25.1°F-3.8°C 56% 2.5 mph E4.0 kmh E 3.1 mph5.0 kmh 30.28 in1025.4 mb 0.00 in0.0 mm 0.00 in0.0 mm 0.00 in0.0 mm
04:29 PM 39.2°F4.0°C 24.8°F-4.0°C 56% 3.3 mph E5.3 kmh E 3.4 mph5.5 kmh 30.28 in1025.4 mb 0.00 in0.0 mm 0.00 in0.0 mm 0.00 in0.0 mm
04:34 PM 38.7°F3.7°C 24.2°F-4.3°C 56% 5.0 mph E8.0 kmh E 6.0 mph9.7 kmh 30.27 in1025.1 mb 0.00 in0.0 mm 0.00 in0.0 mm 0.00 in0.0 mm
04:39 PM 37.3°F2.9°C 23.0°F-5.0°C 56% 5.7 mph ENE9.2 kmh ENE 6.3 mph10.1 kmh 30.28 in1025.4 mb 0.00 in0.0 mm 0.00 in0.0 mm 0.00 in0.0 mm
04:44 PM 35.8°F2.1°C 22.5°F-5.3°C 58% 5.4 mph E8.7 kmh E 6.7 mph10.8 kmh 30.28 in1025.4 mb 0.00 in0.0 mm 0.00 in0.0 mm 0.00 in0.0 mm
04:49 PM 34.7°F1.5°C 21.4°F-5.9°C 58% 5.3 mph E8.5 kmh E 6.7 mph10.8 kmh 30.28 in1025.4 mb 0.00 in0.0 mm 0.00 in0.0 mm 0.00 in0.0 mm
04:53 PM 34.0°F1.1°C 21.2°F-6.0°C 59% 5.4 mph E8.7 kmh E 5.8 mph9.3 kmh 30.28 in1025.4 mb 0.00 in0.0 mm 0.00 in0.0 mm 0.00 in0.0 mm
04:58 PM 33.1°F0.6°C 20.8°F-6.2°C 60% 5.5 mph E8.9 kmh E 5.6 mph9.0 kmh 30.28 in1025.4 mb 0.00 in0.0 mm 0.00 in0.0 mm 0.00 in0.0 mm
05:04 PM 32.2°F0.1°C 20.4°F-6.4°C 61% 5.7 mph E9.2 kmh E 5.8 mph9.3 kmh 30.28 in1025.4 mb 0.00 in0.0 mm 0.00 in0.0 mm 0.00 in0.0 mm
05:09 PM 31.5°F-0.3°C 20.0°F-6.7°C 62% 4.9 mph ENE7.9 kmh ENE 5.8 mph9.3 kmh 30.28 in1025.4 mb 0.00 in0.0 mm 0.00 in0.0 mm 0.00 in0.0 mm
05:14 PM 31.0°F-0.6°C 19.4°F-7.0°C 62% 5.2 mph ENE8.4 kmh ENE 5.8 mph9.3 kmh 30.28 in1025.4 mb 0.00 in0.0 mm 0.00 in0.0 mm 0.00 in0.0 mm
05:19 PM 30.2°F-1.0°C 19.1°F-7.2°C 63% 4.2 mph ENE6.8 kmh ENE 5.4 mph8.7 kmh 30.28 in1025.4 mb 0.00 in0.0 mm 0.00 in0.0 mm 0.00 in0.0 mm
05:24 PM 29.9°F-1.2°C 18.7°F-7.4°C 63% 3.5 mph NE5.6 kmh NE 4.9 mph7.9 kmh 30.28 in1025.4 mb 0.00 in0.0 mm 0.00 in0.0 mm 0.00 in0.0 mm
05:29 PM 28.8°F-1.8°C 17.5°F-8.1°C 62% 4.4 mph NE7.1 kmh NE 4.7 mph7.6 kmh 30.28 in1025.4 mb 0.00 in0.0 mm 0.00 in0.0 mm 0.00 in0.0 mm
05:34 PM 28.1°F-2.2°C 17.1°F-8.3°C 63% 2.5 mph NE4.0 kmh NE 4.7 mph7.6 kmh 30.28 in1025.4 mb 0.00 in0.0 mm 0.00 in0.0 mm 0.00 in0.0 mm
05:39 PM 27.5°F-2.5°C 16.9°F-8.4°C 64% 4.3 mph N6.9 kmh N 4.7 mph7.6 kmh 30.28 in1025.4 mb 0.00 in0.0 mm 0.00 in0.0 mm 0.00 in0.0 mm
05:44 PM 27.0°F-2.8°C 16.7°F-8.5°C 65% 4.2 mph ENE6.8 kmh ENE 4.7 mph7.6 kmh 30.28 in1025.4 mb 0.00 in0.0 mm 0.00 in0.0 mm 0.00 in0.0 mm
05:49 PM 26.8°F-2.9°C 16.9°F-8.4°C 66% 1.5 mph NE2.4 kmh NE 4.3 mph6.9 kmh 30.28 in1025.4 mb 0.00 in0.0 mm 0.00 in0.0 mm 0.00 in0.0 mm
05:54 PM 26.5°F-3.1°C 16.6°F-8.6°C 66% 2.2 mph 3.5 kmh 3.8 mph6.1 kmh 30.28 in1025.4 mb 0.00 in0.0 mm 0.00 in0.0 mm 0.00 in0.0 mm
05:59 PM 26.3°F-3.2°C 16.4°F-8.7°C 66% 3.6 mph 5.8 kmh 3.8 mph6.1 kmh 30.27 in1025.1 mb 0.00 in0.0 mm 0.00 in0.0 mm 0.00 in0.0 mm
06:04 PM 25.9°F-3.4°C 16.0°F-8.9°C 66% 2.7 mph 4.3 kmh 3.8 mph6.1 kmh 30.27 in1025.1 mb 0.00 in0.0 mm 0.00 in0.0 mm 0.00 in0.0 mm
06:09 PM 25.6°F-3.6°C 15.7°F-9.1°C 66% 4.7 mph 7.6 kmh 4.7 mph7.6 kmh 30.28 in1025.4 mb 0.00 in0.0 mm 0.00 in0.0 mm 0.00 in0.0 mm
06:14 PM 25.2°F-3.8°C 15.7°F-9.1°C 67% 4.1 mph 6.6 kmh 4.7 mph7.6 kmh 30.28 in1025.4 mb 0.00 in0.0 mm 0.00 in0.0 mm 0.00 in0.0 mm
06:19 PM 24.8°F-4.0°C 15.7°F-9.1°C 68% 4.5 mph 7.2 kmh 5.6 mph9.0 kmh 30.28 in1025.4 mb 0.00 in0.0 mm 0.00 in0.0 mm 0.00 in0.0 mm
06:24 PM 24.8°F-4.0°C 16.4°F-8.7°C 70% 4.6 mph NE7.4 kmh NE 6.0 mph9.7 kmh 30.28 in1025.4 mb 0.00 in0.0 mm 0.00 in0.0 mm 0.00 in0.0 mm
06:29 PM 24.8°F-4.0°C 16.4°F-8.7°C 70% 5.0 mph NE8.0 kmh NE 6.0 mph9.7 kmh 30.28 in1025.4 mb 0.00 in0.0 mm 0.00 in0.0 mm 0.00 in0.0 mm
06:34 PM 24.3°F-4.3°C 15.9°F-8.9°C 70% 4.9 mph NE7.9 kmh NE 6.0 mph9.7 kmh 30.28 in1025.4 mb 0.00 in0.0 mm 0.00 in0.0 mm 0.00 in0.0 mm
06:39 PM 23.9°F-4.5°C 15.6°F-9.1°C 70% 1.6 mph N2.6 kmh N 6.0 mph9.7 kmh 30.28 in1025.4 mb 0.00 in0.0 mm 0.00 in0.0 mm 0.00 in0.0 mm
06:44 PM 23.6°F-4.7°C 15.2°F-9.3°C 70% 2.2 mph N3.5 kmh N 4.3 mph6.9 kmh 30.28 in1025.4 mb 0.00 in0.0 mm 0.00 in0.0 mm 0.00 in0.0 mm
06:49 PM 23.4°F-4.8°C 15.1°F-9.4°C 70% 2.5 mph E4.0 kmh E 3.1 mph5.0 kmh 30.28 in1025.4 mb 0.00 in0.0 mm 0.00 in0.0 mm 0.00 in0.0 mm
06:54 PM 23.2°F-4.9°C 15.0°F-9.4°C 70% Calm Calm 2.9 mph4.7 kmh 30.28 in1025.4 mb 0.00 in0.0 mm 0.00 in0.0 mm 0.00 in0.0 mm
07:00 PM 23.0°F-5.0°C 15.0°F-9.4°C 71% 1.0 mph 1.6 kmh 1.8 mph2.9 kmh 30.28 in1025.4 mb 0.00 in0.0 mm 0.00 in0.0 mm 0.00 in0.0 mm
07:05 PM 22.7°F-5.2°C 14.4°F-9.8°C 70% 1.6 mph NNE2.6 kmh NNE 2.0 mph3.2 kmh 30.27 in1025.1 mb 0.00 in0.0 mm 0.00 in0.0 mm 0.00 in0.0 mm
07:09 PM 22.5°F-5.3°C 14.5°F-9.7°C 71% 1.6 mph NNE2.6 kmh NNE 2.0 mph3.2 kmh 30.28 in1025.4 mb 0.00 in0.0 mm 0.00 in0.0 mm 0.00 in0.0 mm
07:14 PM 22.5°F-5.3°C 14.5°F-9.7°C 71% 2.3 mph 3.7 kmh 2.7 mph4.3 kmh 30.28 in1025.4 mb 0.00 in0.0 mm 0.00 in0.0 mm 0.00 in0.0 mm
07:19 PM 22.0°F-5.6°C 13.7°F-10.2°C 70% 3.0 mph N4.8 kmh N 3.6 mph5.8 kmh 30.28 in1025.4 mb 0.00 in0.0 mm 0.00 in0.0 mm 0.00 in0.0 mm
07:24 PM 22.0°F-5.6°C 14.0°F-10.0°C 71% 3.3 mph NNE5.3 kmh NNE 3.6 mph5.8 kmh 30.28 in1025.4 mb 0.00 in0.0 mm 0.00 in0.0 mm 0.00 in0.0 mm
07:29 PM 21.6°F-5.8°C 13.6°F-10.2°C 71% 2.0 mph NE3.2 kmh NE 3.4 mph5.5 kmh 30.27 in1025.1 mb 0.00 in0.0 mm 0.00 in0.0 mm 0.00 in0.0 mm
07:34 PM 21.4°F-5.9°C 13.8°F-10.1°C 72% 1.3 mph NE2.1 kmh NE 2.5 mph4.0 kmh 30.28 in1025.4 mb 0.00 in0.0 mm 0.00 in0.0 mm 0.00 in0.0 mm
07:39 PM 21.4°F-5.9°C 13.8°F-10.1°C 72% 1.1 mph NE1.8 kmh NE 2.2 mph3.5 kmh 30.28 in1025.4 mb 0.00 in0.0 mm 0.00 in0.0 mm 0.00 in0.0 mm
07:44 PM 21.2°F-6.0°C 13.9°F-10.1°C 73% 1.5 mph NE2.4 kmh NE 1.8 mph2.9 kmh 30.28 in1025.4 mb 0.00 in0.0 mm 0.00 in0.0 mm 0.00 in0.0 mm
07:49 PM 21.2°F-6.0°C 13.9°F-10.1°C 73% 0.8 mph ENE1.3 kmh ENE 1.8 mph2.9 kmh 30.28 in1025.4 mb 0.00 in0.0 mm 0.00 in0.0 mm 0.00 in0.0 mm
07:54 PM 20.9°F-6.2°C 13.5°F-10.3°C 73% Calm Calm 1.8 mph2.9 kmh 30.28 in1025.4 mb 0.00 in0.0 mm 0.00 in0.0 mm 0.00 in0.0 mm
08:00 PM 20.5°F-6.4°C 13.1°F-10.5°C 73% 0.7 mph E1.1 kmh E 1.3 mph2.1 kmh 30.28 in1025.4 mb 0.00 in0.0 mm 0.00 in0.0 mm 0.00 in0.0 mm
08:05 PM 20.3°F-6.5°C 13.3°F-10.4°C 74% Calm Calm 1.3 mph2.1 kmh 30.28 in1025.4 mb 0.00 in0.0 mm 0.00 in0.0 mm 0.00 in0.0 mm
08:10 PM 20.3°F-6.5°C 13.3°F-10.4°C 74% 1.4 mph NNE2.3 kmh NNE 1.6 mph2.6 kmh 30.28 in1025.4 mb 0.00 in0.0 mm 0.00 in0.0 mm 0.00 in0.0 mm
08:15 PM 19.8°F-6.8°C 12.4°F-10.9°C 73% 4.1 mph NNE6.6 kmh NNE 4.7 mph7.6 kmh 30.28 in1025.4 mb 0.00 in0.0 mm 0.00 in0.0 mm 0.00 in0.0 mm
08:20 PM 19.6°F-6.9°C 12.2°F-11.0°C 73% 2.8 mph 4.5 kmh 4.7 mph7.6 kmh 30.28 in1025.4 mb 0.00 in0.0 mm 0.00 in0.0 mm 0.00 in0.0 mm
08:25 PM 19.8°F-6.8°C 13.1°F-10.5°C 75% 1.1 mph NE1.8 kmh NE 4.0 mph6.4 kmh 30.28 in1025.4 mb 0.00 in0.0 mm 0.00 in0.0 mm 0.00 in0.0 mm
08:30 PM 19.8°F-6.8°C 12.8°F-10.7°C 74% 2.0 mph ESE3.2 kmh ESE 2.0 mph3.2 kmh 30.28 in1025.4 mb 0.00 in0.0 mm 0.00 in0.0 mm 0.00 in0.0 mm
08:35 PM 19.8°F-6.8°C 12.8°F-10.7°C 74% 1.8 mph E2.9 kmh E 3.4 mph5.5 kmh 30.28 in1025.4 mb 0.00 in0.0 mm 0.00 in0.0 mm 0.00 in0.0 mm
08:39 PM 19.6°F-6.9°C 12.6°F-10.8°C 74% 1.1 mph E1.8 kmh E 3.4 mph5.5 kmh 30.28 in1025.4 mb 0.00 in0.0 mm 0.00 in0.0 mm 0.00 in0.0 mm
08:44 PM 19.3°F-7.1°C 12.3°F-10.9°C 74% Calm Calm 1.8 mph2.9 kmh 30.28 in1025.4 mb 0.00 in0.0 mm 0.00 in0.0 mm 0.00 in0.0 mm
08:49 PM 18.7°F-7.4°C 11.7°F-11.3°C 74% 1.3 mph NNE2.1 kmh NNE 1.3 mph2.1 kmh 30.28 in1025.4 mb 0.00 in0.0 mm 0.00 in0.0 mm 0.00 in0.0 mm
08:54 PM 18.4°F-7.6°C 11.3°F-11.5°C 74% 2.8 mph 4.5 kmh 3.4 mph5.5 kmh 30.28 in1025.4 mb 0.00 in0.0 mm 0.00 in0.0 mm 0.00 in0.0 mm
09:00 PM 17.6°F-8.0°C 10.7°F-11.8°C 74% 1.4 mph NE2.3 kmh NE 3.4 mph5.5 kmh 30.28 in1025.4 mb 0.00 in0.0 mm 0.00 in0.0 mm 0.00 in0.0 mm
09:05 PM 17.6°F-8.0°C 10.7°F-11.8°C 74% Calm Calm 1.8 mph2.9 kmh 30.28 in1025.4 mb 0.00 in0.0 mm 0.00 in0.0 mm 0.00 in0.0 mm
09:10 PM 17.1°F-8.3°C 10.2°F-12.1°C 74% 2.3 mph ENE3.7 kmh ENE 2.5 mph4.0 kmh 30.28 in1025.4 mb 0.00 in0.0 mm 0.00 in0.0 mm 0.00 in0.0 mm
09:15 PM 16.9°F-8.4°C 10.3°F-12.1°C 75% 3.4 mph ENE5.5 kmh ENE 4.0 mph6.4 kmh 30.28 in1025.4 mb 0.00 in0.0 mm 0.00 in0.0 mm 0.00 in0.0 mm
09:20 PM 16.7°F-8.5°C 10.5°F-11.9°C 76% 2.9 mph ENE4.7 kmh ENE 4.0 mph6.4 kmh 30.27 in1025.1 mb 0.00 in0.0 mm 0.00 in0.0 mm 0.00 in0.0 mm
09:25 PM 16.7°F-8.5°C 10.5°F-11.9°C 76% 3.0 mph E4.8 kmh E 5.4 mph8.7 kmh 30.27 in1025.1 mb 0.00 in0.0 mm 0.00 in0.0 mm 0.00 in0.0 mm
09:30 PM 16.7°F-8.5°C 10.5°F-11.9°C 76% 2.6 mph NW4.2 kmh NW 5.4 mph8.7 kmh 30.28 in1025.4 mb 0.00 in0.0 mm 0.00 in0.0 mm 0.00 in0.0 mm
09:35 PM 16.2°F-8.8°C 9.6°F-12.4°C 75% 2.5 mph N4.0 kmh N 3.1 mph5.0 kmh 30.27 in1025.1 mb 0.00 in0.0 mm 0.00 in0.0 mm 0.00 in0.0 mm
09:40 PM 15.5°F-9.2°C 9.3°F-12.6°C 76% 3.7 mph 6.0 kmh 5.4 mph8.7 kmh 30.28 in1025.4 mb 0.00 in0.0 mm 0.00 in0.0 mm 0.00 in0.0 mm
09:45 PM 15.1°F-9.4°C 8.9°F-12.8°C 76% 4.0 mph N6.4 kmh N 5.4 mph8.7 kmh 30.27 in1025.1 mb 0.00 in0.0 mm 0.00 in0.0 mm 0.00 in0.0 mm
09:50 PM 15.5°F-9.2°C 9.3°F-12.6°C 76% 2.3 mph 3.7 kmh 4.3 mph6.9 kmh 30.28 in1025.4 mb 0.00 in0.0 mm 0.00 in0.0 mm 0.00 in0.0 mm
09:55 PM 15.3°F-9.3°C 9.1°F-12.7°C 76% 3.0 mph NNE4.8 kmh NNE 3.8 mph6.1 kmh 30.27 in1025.1 mb 0.00 in0.0 mm 0.00 in0.0 mm 0.00 in0.0 mm
10:00 PM 15.5°F-9.2°C 9.3°F-12.6°C 76% 2.4 mph NE3.9 kmh NE 3.8 mph6.1 kmh 30.27 in1025.1 mb 0.00 in0.0 mm 0.00 in0.0 mm 0.00 in0.0 mm
10:05 PM 15.5°F-9.2°C 9.3°F-12.6°C 76% 2.5 mph E4.0 kmh E 2.9 mph4.7 kmh 30.27 in1025.1 mb 0.00 in0.0 mm 0.00 in0.0 mm 0.00 in0.0 mm
10:10 PM 15.5°F-9.2°C 9.3°F-12.6°C 76% 2.7 mph SE4.3 kmh SE 3.4 mph5.5 kmh 30.27 in1025.1 mb 0.00 in0.0 mm 0.00 in0.0 mm 0.00 in0.0 mm
10:15 PM 15.3°F-9.3°C 9.1°F-12.7°C 76% 2.6 mph E4.2 kmh E 3.4 mph5.5 kmh 30.27 in1025.1 mb 0.00 in0.0 mm 0.00 in0.0 mm 0.00 in0.0 mm
10:20 PM 14.9°F-9.5°C 9.0°F-12.8°C 77% 2.0 mph NE3.2 kmh NE 3.1 mph5.0 kmh 30.27 in1025.1 mb 0.00 in0.0 mm 0.00 in0.0 mm 0.00 in0.0 mm
10:25 PM 15.1°F-9.4°C 9.2°F-12.7°C 77% 2.8 mph NE4.5 kmh NE 3.4 mph5.5 kmh 30.27 in1025.1 mb 0.00 in0.0 mm 0.00 in0.0 mm 0.00 in0.0 mm
10:30 PM 15.1°F-9.4°C 9.2°F-12.7°C 77% 3.1 mph ENE5.0 kmh ENE 4.7 mph7.6 kmh 30.26 in1024.7 mb 0.00 in0.0 mm 0.00 in0.0 mm 0.00 in0.0 mm
10:35 PM 15.1°F-9.4°C 9.2°F-12.7°C 77% 1.1 mph SE1.8 kmh SE 4.7 mph7.6 kmh 30.27 in1025.1 mb 0.00 in0.0 mm 0.00 in0.0 mm 0.00 in0.0 mm
10:40 PM 14.9°F-9.5°C 9.0°F-12.8°C 77% 1.4 mph SW2.3 kmh SW 2.2 mph3.5 kmh 30.27 in1025.1 mb 0.00 in0.0 mm 0.00 in0.0 mm 0.00 in0.0 mm
10:45 PM 14.6°F-9.7°C 8.6°F-13.0°C 77% 0.2 mph W0.3 kmh W 2.0 mph3.2 kmh 30.26 in1024.7 mb 0.00 in0.0 mm 0.00 in0.0 mm 0.00 in0.0 mm
10:50 PM 14.4°F-9.8°C 8.5°F-13.1°C 77% 1.5 mph NNW2.4 kmh NNW 1.6 mph2.6 kmh 30.26 in1024.7 mb 0.00 in0.0 mm 0.00 in0.0 mm 0.00 in0.0 mm
10:55 PM 13.9°F-10.1°C 7.9°F-13.4°C 77% 1.5 mph E2.4 kmh E 2.0 mph3.2 kmh 30.26 in1024.7 mb 0.00 in0.0 mm 0.00 in0.0 mm 0.00 in0.0 mm
11:00 PM 13.7°F-10.2°C 7.7°F-13.5°C 77% Calm Calm 2.0 mph3.2 kmh 30.26 in1024.7 mb 0.00 in0.0 mm 0.00 in0.0 mm 0.00 in0.0 mm
11:05 PM 14.0°F-10.0°C 8.1°F-13.3°C 77% 0.6 mph E1.0 kmh E 1.1 mph1.8 kmh 30.26 in1024.7 mb 0.00 in0.0 mm 0.00 in0.0 mm 0.00 in0.0 mm
11:10 PM 14.2°F-9.9°C 8.7°F-12.9°C 78% 0.4 mph E0.6 kmh E 1.3 mph2.1 kmh 30.26 in1024.7 mb 0.00 in0.0 mm 0.00 in0.0 mm 0.00 in0.0 mm
11:15 PM 14.4°F-9.8°C 8.8°F-12.9°C 78% 2.0 mph E3.2 kmh E 2.9 mph4.7 kmh 30.26 in1024.7 mb 0.00 in0.0 mm 0.00 in0.0 mm 0.00 in0.0 mm
11:20 PM 14.4°F-9.8°C 8.8°F-12.9°C 78% 3.4 mph E5.5 kmh E 3.4 mph5.5 kmh 30.26 in1024.7 mb 0.00 in0.0 mm 0.00 in0.0 mm 0.00 in0.0 mm
11:25 PM 14.4°F-9.8°C 8.8°F-12.9°C 78% 1.4 mph ESE2.3 kmh ESE 3.4 mph5.5 kmh 30.26 in1024.7 mb 0.00 in0.0 mm 0.00 in0.0 mm 0.00 in0.0 mm
11:30 PM 14.4°F-9.8°C 8.8°F-12.9°C 78% 3.3 mph ENE5.3 kmh ENE 4.7 mph7.6 kmh 30.26 in1024.7 mb 0.00 in0.0 mm 0.00 in0.0 mm 0.00 in0.0 mm
11:35 PM 14.2°F-9.9°C 8.7°F-12.9°C 78% 5.4 mph NE8.7 kmh NE 6.0 mph9.7 kmh 30.26 in1024.7 mb 0.00 in0.0 mm 0.00 in0.0 mm 0.00 in0.0 mm
11:40 PM 14.0°F-10.0°C 8.7°F-12.9°C 79% 4.7 mph ENE7.6 kmh ENE 6.0 mph9.7 kmh 30.26 in1024.7 mb 0.00 in0.0 mm 0.00 in0.0 mm 0.00 in0.0 mm
11:45 PM 14.0°F-10.0°C 8.7°F-12.9°C 79% 2.7 mph NNE4.3 kmh NNE 5.8 mph9.3 kmh 30.26 in1024.7 mb 0.00 in0.0 mm 0.00 in0.0 mm 0.00 in0.0 mm
11:50 PM 14.0°F-10.0°C 8.7°F-12.9°C 79% 1.0 mph N1.6 kmh N 4.3 mph6.9 kmh 30.26 in1024.7 mb 0.00 in0.0 mm 0.00 in0.0 mm 0.00 in0.0 mm
11:55 PM 14.0°F-10.0°C 8.5°F-13.1°C 78% 3.9 mph 6.3 kmh 4.0 mph6.4 kmh 30.25 in1024.4 mb 0.00 in0.0 mm 0.00 in0.0 mm 0.00 in0.0 mm